Pagina principale
METAR-TAF:

METAR-TAF

Aeroporti :

Jijel, Algeria

latitudine: 36-53N, longitudine: 005-49E, altezza: 2 m

Osservazione

Il bollettino è stato emesso 45 minuti fa, alle 17:00 UTC
Vento 2 kt da nord/nord-est
Temperature 25°C
Umidità 50%
Pressione 1011 hPa
Visibilità 10 km o più
nessuna nube inferiore a 1500 m e nessun cumulonembo

METAR: DAAV 311700Z 02002KT CAVOK 25/14 Q1011

Ora: 18:45 (17:45 UTC)

Previsione

Il bollettino è stato emesso 45 minuti fa, alle 17:00 UTC
Previsione valida dal 31 alle 18 UTC al 01 alle 18 UTC
Vento 8 kt da nord/nord-ovest
Visibilità 10 km o più
Poco nuvoloso ad un'altezza di 2000 ft
Nubi sparse ad un'altezza di 10000 ft
Probabilità 30% :
Temporaneamente
dal 31 alle 18 UTC al 31 alle 24 UTC
Vento 12 kt da nord/nord-est
Poco nuvoloso ad un'altezza di 2000 ft, Cumulo congesto.

TAF: DAAV 311700Z 3118/0118 34008KT 9999 FEW020 SCT100 PROB30 TEMPO 3118/3124 02012KT FEW020TCU

Osservazioni e previsioni meteorologiche di più di 4000 aeroporti (messaggi METAR e TAF).

Le stazioni disponibili sono rappresentate dai dischi gialli e rossi sulla carta.

Puntare il mouse per vedere il nome della stazione.

Clicca sopra per visualizzare le osservazioni e previsioni meteorologiche.

Per cambiare la mappa : fare clic sui pulsanti verdi con una croce nera per ingrandire, il pulsante verde con un trattino per diminuire, o sulla freccia verde per le mappe adiacenti.


METAR-TAF: